Terminal Aerodrome Forecast
Issued by NWS Knoxville/Tri Cities, TN

Home | Current Version | Previous Version | Text Only | Print | Product List | Glossary On
Versions: 1 2 3 4 5 6 7 8 9 10 11 12 13 14 15 16 17 18 19 20 21 22 23 24 25 26 27 28 29 30 31 32 33
000
FTUS44 KMRX 210533
TAFTRI
TAF
KTRI 210533Z 2106/2206 00000KT 3SM BR OVC010
      TEMPO 2108/2112 2SM BR BKN007
     FM211400 VRB03KT P6SM SCT008 OVC015
     FM211700 VRB03KT P6SM BKN035
     FM211900 VRB03KT P6SM SCT040
     FM220400 VRB02KT P6SM BKN060=

USA.gov is the U.S. government's official web portal to all federal, state and local government web resources and services.